Sunday, November 19, 2017, 8:57 PM EST
Back to Local

KBWI, Baltimore-washington International

Location: Glen Burnie, MD, United States Lat: 39.167
Local Time: 8:57 PM EST ( 1:57 GMT) Lon: -76.683
Time Zone: US/Eastern Elev: 147 ft

Show me the last for .
Show Decoded

2017-11-19 19:54 METAR KBWI 200054Z 27008KT 10SM FEW070 04/M03 A2987 RMK AO2 SLP114 T00441033 =
2017-11-19 18:54 METAR KBWI 192354Z 28012G17KT 10SM BKN070 06/M04 A2986 RMK AO2 SLP111 T00611039
                 10106 20056 53028 =
2017-11-19 17:54 METAR KBWI 192254Z 28010G18KT 10SM SCT060 06/M03 A2983 RMK AO2 PK WND 30028/2220
                 SLP100 T00611033 =
2017-11-19 16:54 METAR KBWI 192154Z 29012KT 10SM BKN065 07/M03 A2980 RMK AO2 PK WND 29026/2129
                 SLP090 T00721028 =
2017-11-19 15:54 METAR KBWI 192054Z 29015G28KT 10SM BKN060 08/M03 A2977 RMK AO2 PK WND 28028/1955
                 SLP081 T00781033 53023 =
2017-11-19 14:54 METAR KBWI 191954Z 28015G23KT 10SM BKN055 08/M02 A2974 RMK AO2 PK WND 28035/1903
                 SLP070 T00831022 =
2017-11-19 13:54 METAR KBWI 191854Z 29023G33KT 10SM BKN050 08/M02 A2972 RMK AO2 PK WND 28033/1839
                 SLP063 T00831022 =
2017-11-19 12:54 METAR KBWI 191754Z 28018G28KT 10SM BKN050 10/M01 A2971 RMK AO2 PK WND 31037/1723
                 SLP058 T01001011 10111 20083 51020 =
2017-11-19 11:54 METAR KBWI 191654Z 28025G35KT 10SM BKN050 11/00 A2969 RMK AO2 PK WND 29036/1638
                 SLP054 T01060000 =
2017-11-19 10:54 METAR KBWI 191554Z 29015G26KT 10SM BKN047 09/01 A2969 RMK AO2 PK WND 28038/1504
                 SLP052 T00940006 =
2017-11-19 09:54 METAR KBWI 191454Z 29023G33KT 10SM SCT046 10/01 A2965 RMK AO2 PK WND 28037/1442
                 SLP038 T01000006 51034 =
2017-11-19 08:54 METAR KBWI 191354Z 28020G28KT 10SM FEW045 SCT250 09/01 A2962 RMK AO2 PK WND
                 27032/1324 SLP031 T00940006 =
2017-11-19 07:54 METAR KBWI 191254Z 28015G29KT 10SM SCT042 08/01 A2959 RMK AO2 PK WND 28033/1234
                 SLP018 T00830006 =
2017-11-19 06:54 METAR KBWI 191154Z 29018G29KT 10SM FEW042 FEW070 SCT250 08/01 A2954 RMK AO2 PK
                 WND 28043/1121 PRESRR SLP005 ACSL W-NW 60016 70016 T00830011 10161 20083 53079 =
2017-11-19 05:54 METAR KBWI 191054Z 28026G40KT 10SM FEW033 FEW070 SCT090 11/03 A2943 RMK AO2 PK
                 WND 29040/1046 RAE0955 PRESRR SLP967 P0000 T01060033 =
2017-11-19 04:54 METAR KBWI 190954Z 26019G27KT 8SM -RA FEW023 SCT048 BKN070 14/12 A2935 RMK AO2
                 PK WND 26027/0928 RAB25 PRESRR SLP939 P0004 T01390122 =
2017-11-19 04:37 METAR KBWI 190937Z 24018G27KT 4SM -RA BR FEW020 BKN048 OVC060 14/13 A2933 RMK
                 AO2 PK WND 26027/0928 RAB25 P0003 T01440128 =
2017-11-19 04:32 METAR KBWI 190932Z 26015G27KT 2 1/2SM RA BR FEW023 BKN048 OVC060 15/13 A2933 RMK
                 AO2 PK WND 26027/0928 RAB25 PRESRR P0002 T01500133 =
2017-11-19 03:54 METAR KBWI 190854Z 21012G21KT 10SM FEW029 BKN070 OVC130 16/13 A2931 RMK AO2
                 SLP924 60012 T01560133 55021 =
2017-11-19 02:54 METAR KBWI 190754Z COR 19011G17KT 10SM FEW080 SCT110 OVC130 14/13 A2929 RMK AO2
                 RAE42 SLP918 P0003 T01440133 =
2017-11-19 01:54 METAR KBWI 190654Z 20009G16KT 5SM -RA BR SCT040 BKN070 OVC080 14/13 A2936 RMK
                 AO2 LTG DSNT NE SLP941 P0009 T01440133 =
2017-11-19 00:54 METAR KBWI 190554Z 21008G22KT 7SM -RA FEW070 BKN110 OVC150 16/12 A2937 RMK AO2
                 RAB18 SLP945 P0000 60000 T01610117 10172 20133 56025 =
2017-11-18 23:54 METAR KBWI 190454Z 21012G25KT 10SM SCT100 BKN150 OVC190 17/10 A2939 RMK AO2 PK
                 WND 21027/0417 SLP952 T01720100 401721011 =
2017-11-18 22:54 METAR KBWI 190354Z 21015G25KT 10SM FEW110 SCT160 OVC190 17/09 A2941 RMK AO2 PK
                 WND 20027/0320 SLP959 T01670094 =
2017-11-18 21:54 METAR KBWI 190254Z 21011G20KT 10SM FEW100 FEW120 OVC150 16/09 A2945 RMK AO2 PK
                 WND 20026/0207 SLP970 60000 T01610089 58030 =

Support USWX by starting your Amazon purchase here.